createdAt,value
2023-03-01T00:03:17.223Z,3.88
2023-03-01T00:08:18.902Z,3.85
2023-03-01T00:13:20.660Z,3.84
2023-03-01T00:18:23.492Z,3.86
2023-03-01T00:23:25.732Z,3.85
2023-03-01T00:28:27.354Z,3.76
2023-03-01T00:33:28.941Z,3.76
2023-03-01T00:38:30.871Z,3.72
2023-03-01T00:43:37.576Z,3.70
2023-03-01T00:48:39.495Z,3.70
2023-03-01T00:53:42.034Z,3.68
2023-03-01T00:58:44.152Z,3.66
2023-03-01T01:03:58.473Z,3.61
2023-03-01T01:09:00.759Z,3.57
2023-03-01T01:14:02.437Z,3.54
2023-03-01T01:19:04.947Z,3.56
2023-03-01T01:24:06.951Z,3.54
2023-03-01T01:29:08.893Z,3.54
2023-03-01T01:34:16.353Z,3.50
2023-03-01T01:39:18.026Z,3.50
2023-03-01T01:44:19.669Z,3.47
2023-03-01T01:49:38.145Z,3.47
2023-03-01T01:54:51.448Z,3.44
2023-03-01T01:59:58.646Z,3.44
2023-03-01T02:05:11.273Z,3.42
2023-03-01T02:10:12.942Z,3.39
2023-03-01T02:15:14.710Z,3.38
2023-03-01T02:20:34.115Z,3.40
2023-03-01T02:26:03.319Z,3.38
2023-03-01T02:31:26.795Z,3.36
2023-03-01T02:36:37.103Z,3.35
2023-03-01T02:41:41.992Z,3.32
2023-03-01T02:46:50.171Z,3.31
2023-03-01T02:52:13.035Z,3.33
2023-03-01T02:57:15.202Z,3.28
2023-03-01T03:02:37.126Z,3.19
2023-03-01T03:07:44.794Z,3.17
2023-03-01T03:12:55.878Z,3.17
2023-03-01T03:17:59.468Z,3.14
2023-03-01T03:23:01.620Z,3.09
2023-03-01T03:28:10.321Z,3.11
2023-03-01T03:33:13.836Z,3.18
2023-03-01T03:38:18.144Z,3.11
2023-03-01T03:43:22.907Z,3.07
2023-03-01T03:48:25.919Z,2.98
2023-03-01T03:53:29.227Z,2.94
2023-03-01T03:58:30.915Z,2.89
2023-03-01T04:03:33.557Z,2.85
2023-03-01T04:08:35.250Z,2.78
2023-03-01T04:13:37.401Z,2.76
2023-03-01T04:18:39.009Z,2.80
2023-03-01T04:23:41.919Z,2.73
2023-03-01T04:28:47.104Z,2.66
2023-03-01T04:33:54.136Z,2.58
2023-03-01T04:38:57.062Z,2.56
2023-03-01T04:44:01.063Z,2.59
2023-03-01T04:49:03.967Z,2.53
2023-03-01T04:54:09.727Z,2.51
2023-03-01T04:59:13.531Z,2.47
2023-03-01T05:04:15.191Z,2.42
2023-03-01T05:09:16.942Z,2.51
2023-03-01T05:14:18.635Z,2.47
2023-03-01T05:19:23.714Z,2.46
2023-03-01T05:24:25.678Z,2.44
2023-03-01T05:29:28.734Z,2.46
2023-03-01T05:34:36.369Z,2.28
2023-03-01T05:39:38.001Z,2.12
2023-03-01T05:44:39.801Z,2.13
2023-03-01T05:49:41.428Z,2.05
2023-03-01T05:54:43.089Z,1.94
2023-03-01T05:59:44.683Z,1.86
2023-03-01T06:04:46.365Z,1.80
2023-03-01T06:09:48.061Z,1.85
2023-03-01T06:14:49.726Z,1.87
2023-03-01T06:19:51.381Z,1.74
2023-03-01T06:24:53.042Z,1.62
2023-03-01T06:29:54.960Z,1.54
2023-03-01T06:34:56.750Z,1.57
2023-03-01T06:39:58.378Z,1.53
2023-03-01T06:45:00.003Z,1.64
2023-03-01T06:50:02.971Z,1.58
2023-03-01T06:55:05.379Z,1.65
2023-03-01T07:00:08.163Z,1.63
2023-03-01T07:05:09.833Z,1.56
2023-03-01T07:10:12.360Z,1.65
2023-03-01T07:15:15.947Z,1.43
2023-03-01T07:20:18.983Z,1.28
2023-03-01T07:25:21.042Z,1.25
2023-03-01T07:30:23.665Z,1.28
2023-03-01T07:35:28.945Z,1.44
2023-03-01T07:40:30.674Z,1.64
2023-03-01T07:45:32.444Z,1.84
2023-03-01T07:50:34.142Z,1.86
2023-03-01T07:55:35.802Z,1.65
2023-03-01T08:00:37.572Z,1.65
2023-03-01T08:05:39.217Z,1.49
2023-03-01T08:10:40.840Z,1.75
2023-03-01T08:15:42.466Z,1.97
2023-03-01T08:20:44.327Z,2.10
2023-03-01T08:25:46.183Z,2.20
2023-03-01T08:30:47.832Z,2.28
2023-03-01T08:35:49.493Z,2.24
2023-03-01T08:40:51.181Z,2.24
2023-03-01T08:45:52.881Z,2.30
2023-03-01T08:50:54.487Z,2.23
2023-03-01T08:55:56.147Z,2.13
2023-03-01T09:00:57.821Z,2.11
2023-03-01T09:06:03.841Z,2.28
2023-03-01T09:11:08.494Z,2.34
2023-03-01T09:16:12.695Z,2.33
2023-03-01T09:21:16.896Z,2.65
2023-03-01T09:26:23.933Z,2.56
2023-03-01T09:31:25.952Z,2.56
2023-03-01T09:36:27.647Z,2.48
2023-03-01T09:41:47.495Z,2.60
2023-03-01T09:46:49.613Z,2.57
2023-03-01T09:52:10.097Z,2.69
2023-03-01T09:57:50.592Z,2.77
2023-03-01T10:03:00.447Z,3.13
2023-03-01T10:08:20.341Z,3.47
2023-03-01T10:13:53.849Z,4.00
2023-03-01T10:19:03.095Z,4.38
2023-03-01T10:24:17.564Z,4.81
2023-03-01T10:29:25.108Z,4.87
2023-03-01T10:34:33.322Z,5.33
2023-03-01T10:39:35.182Z,5.54
2023-03-01T10:44:40.407Z,5.87
2023-03-01T10:49:56.086Z,5.51
2023-03-01T10:55:03.961Z,6.02
2023-03-01T11:00:26.428Z,6.51
2023-03-01T11:05:35.273Z,7.15
2023-03-01T11:10:37.603Z,6.89
2023-03-01T11:15:39.321Z,6.85
2023-03-01T11:20:41.865Z,7.36
2023-03-01T11:25:50.343Z,7.33
2023-03-01T11:31:08.324Z,7.16
2023-03-01T11:36:16.494Z,7.07
2023-03-01T11:41:22.523Z,7.24
2023-03-01T11:46:33.027Z,7.18
2023-03-01T11:52:03.345Z,7.08
2023-03-01T11:57:43.326Z,7.30
2023-03-01T12:02:59.311Z,7.57
2023-03-01T12:08:09.990Z,7.60
2023-03-01T12:13:38.712Z,7.82
2023-03-01T12:19:13.070Z,7.60
2023-03-01T12:24:39.906Z,7.91
2023-03-01T12:29:52.142Z,7.55
2023-03-01T12:35:13.592Z,7.53
2023-03-01T12:40:50.832Z,7.38
2023-03-01T12:46:10.439Z,7.40
2023-03-01T12:51:16.856Z,7.25
2023-03-01T12:56:23.796Z,7.16
2023-03-01T13:01:34.165Z,7.41
2023-03-01T13:07:05.713Z,7.33
2023-03-01T13:12:45.855Z,7.51
2023-03-01T13:17:47.573Z,7.07
2023-03-01T13:23:02.577Z,7.07
2023-03-01T13:28:29.066Z,6.79
2023-03-01T13:33:31.798Z,6.79
2023-03-01T13:38:47.123Z,7.08
2023-03-01T13:43:49.052Z,6.95
2023-03-01T13:48:57.699Z,7.04
2023-03-01T13:54:00.350Z,6.98
2023-03-01T13:59:15.820Z,6.82
2023-03-01T14:04:32.399Z,6.99
2023-03-01T14:09:34.782Z,6.77
2023-03-01T14:14:45.493Z,6.68
2023-03-01T14:19:48.997Z,6.55
2023-03-01T14:25:00.457Z,7.00
2023-03-01T14:30:11.067Z,6.64
2023-03-01T14:35:32.818Z,6.41
2023-03-01T14:40:37.107Z,6.51
2023-03-01T14:45:38.805Z,7.05
2023-03-01T14:50:45.596Z,6.64
2023-03-01T14:55:51.836Z,6.24
2023-03-01T15:00:57.006Z,6.21
2023-03-01T15:06:01.473Z,6.38
2023-03-01T15:11:19.863Z,6.84
2023-03-01T15:16:27.927Z,6.41
2023-03-01T15:21:33.973Z,6.13
2023-03-01T15:26:42.690Z,6.64
2023-03-01T15:31:44.672Z,6.42
2023-03-01T15:36:50.776Z,6.14
2023-03-01T15:41:52.557Z,6.33
2023-03-01T15:46:54.381Z,6.26
2023-03-01T15:51:56.397Z,6.17
2023-03-01T15:56:58.060Z,6.04
2023-03-01T16:01:59.659Z,6.01
2023-03-01T16:07:02.092Z,5.97
2023-03-01T16:12:03.895Z,6.17
2023-03-01T16:17:06.342Z,6.17
2023-03-01T16:22:10.818Z,6.01
2023-03-01T16:27:12.488Z,5.97
2023-03-01T16:32:14.281Z,6.33
2023-03-01T16:37:17.058Z,6.13
2023-03-01T16:42:18.985Z,5.94
2023-03-01T16:47:20.776Z,5.78
2023-03-01T16:52:23.372Z,5.81
2023-03-01T16:57:25.038Z,5.56
2023-03-01T17:02:27.276Z,5.60
2023-03-01T17:07:29.500Z,5.71
2023-03-01T17:12:31.143Z,5.49
2023-03-01T17:17:33.210Z,5.76
2023-03-01T17:22:35.010Z,5.61
2023-03-01T17:27:40.633Z,5.49
2023-03-01T17:32:42.427Z,5.64
2023-03-01T17:37:46.551Z,5.59
2023-03-01T17:42:48.312Z,5.43
2023-03-01T17:47:50.039Z,5.27
2023-03-01T17:52:51.757Z,5.29
2023-03-01T17:57:53.385Z,5.26
2023-03-01T18:02:55.112Z,5.23
2023-03-01T18:07:56.675Z,5.27
2023-03-01T18:12:58.309Z,5.27
2023-03-01T18:18:00.067Z,5.28
2023-03-01T18:23:01.759Z,5.33
2023-03-01T18:28:03.526Z,5.37
2023-03-01T18:33:05.381Z,5.34
2023-03-01T18:38:07.125Z,5.33
2023-03-01T18:43:08.899Z,5.30
2023-03-01T18:48:14.369Z,5.36
2023-03-01T18:53:16.029Z,5.29
2023-03-01T18:58:17.596Z,5.13
2023-03-01T19:03:19.178Z,5.03
2023-03-01T19:08:20.989Z,4.98
2023-03-01T19:13:22.754Z,5.00
2023-03-01T19:18:24.324Z,5.11
2023-03-01T19:23:25.930Z,4.97
2023-03-01T19:28:27.991Z,5.01
2023-03-01T19:33:31.224Z,4.97
2023-03-01T19:38:32.910Z,4.93
2023-03-01T19:43:35.447Z,5.00
2023-03-01T19:48:37.438Z,4.97
2023-03-01T19:53:40.544Z,4.93
2023-03-01T19:58:43.319Z,4.99
2023-03-01T20:03:45.917Z,4.91
2023-03-01T20:08:50.561Z,4.88
2023-03-01T20:13:52.363Z,4.89
2023-03-01T20:18:54.461Z,4.64
2023-03-01T20:23:56.123Z,4.67
2023-03-01T20:28:57.800Z,4.72
2023-03-01T20:34:00.046Z,4.74
2023-03-01T20:39:01.715Z,4.64
2023-03-01T20:44:06.504Z,4.67
2023-03-01T20:49:08.183Z,4.57
2023-03-01T20:54:10.636Z,4.65
2023-03-01T20:59:12.916Z,4.62
2023-03-01T21:04:14.583Z,4.59
2023-03-01T21:09:16.408Z,4.80
2023-03-01T21:14:18.183Z,4.66
2023-03-01T21:19:22.807Z,4.58
2023-03-01T21:24:25.171Z,4.71
2023-03-01T21:29:26.798Z,4.69
2023-03-01T21:34:28.363Z,4.71
2023-03-01T21:39:30.578Z,4.75
2023-03-01T21:44:33.034Z,4.86
2023-03-01T21:49:37.280Z,4.78
2023-03-01T21:54:38.904Z,4.75
2023-03-01T21:59:41.173Z,4.63
2023-03-01T22:04:42.988Z,4.50
2023-03-01T22:09:44.780Z,4.44
2023-03-01T22:14:46.574Z,4.41
2023-03-01T22:19:48.316Z,4.51
2023-03-01T22:24:50.073Z,4.48
2023-03-01T22:29:51.912Z,4.52
2023-03-01T22:34:53.745Z,4.27
2023-03-01T22:39:57.334Z,4.20
2023-03-01T22:44:59.551Z,4.27
2023-03-01T22:50:01.423Z,4.11
2023-03-01T22:55:03.271Z,4.05
2023-03-01T23:00:07.799Z,4.01
2023-03-01T23:05:10.596Z,4.00
2023-03-01T23:10:13.639Z,3.84
2023-03-01T23:15:15.467Z,3.88
2023-03-01T23:20:17.740Z,3.82
2023-03-01T23:25:19.535Z,3.95
2023-03-01T23:30:21.467Z,4.19
2023-03-01T23:35:23.228Z,4.05
2023-03-01T23:40:25.027Z,4.01
2023-03-01T23:45:26.810Z,3.96
2023-03-01T23:50:28.690Z,4.54
2023-03-01T23:55:30.751Z,4.39
